createdAt,value
2023-01-22T00:00:16.362Z,1.40
2023-01-22T00:04:38.945Z,1.43
2023-01-22T00:08:42.569Z,1.38
2023-01-22T00:12:53.533Z,1.37
2023-01-22T00:16:59.788Z,1.39
2023-01-22T00:21:03.544Z,1.40
2023-01-22T00:24:57.213Z,1.38
2023-01-22T00:29:00.900Z,1.38
2023-01-22T00:33:00.397Z,1.41
2023-01-22T00:36:34.096Z,1.42
2023-01-22T00:40:43.654Z,1.44
2023-01-22T00:44:32.921Z,1.48
2023-01-22T00:48:27.821Z,1.47
2023-01-22T00:52:12.070Z,1.41
2023-01-22T00:56:14.430Z,1.37
2023-01-22T00:59:47.371Z,1.39
2023-01-22T01:03:47.260Z,1.41
2023-01-22T01:07:17.050Z,1.39
2023-01-22T01:11:09.803Z,1.42
2023-01-22T01:15:14.397Z,1.40
2023-01-22T01:19:18.240Z,1.42
2023-01-22T01:23:14.425Z,1.43
2023-01-22T01:26:59.044Z,1.49
2023-01-22T01:30:52.933Z,1.54
2023-01-22T01:34:41.649Z,1.55
2023-01-22T01:38:15.507Z,1.56
2023-01-22T01:42:18.132Z,1.53
2023-01-22T01:46:21.541Z,1.53
2023-01-22T01:50:37.115Z,1.52
2023-01-22T01:54:26.681Z,1.47
2023-01-22T01:58:29.681Z,1.46
2023-01-22T02:02:10.638Z,1.50
2023-01-22T02:06:10.669Z,1.55
2023-01-22T02:10:03.557Z,1.51
2023-01-22T02:14:07.172Z,1.51
2023-01-22T02:18:01.480Z,1.52
2023-01-22T02:21:58.607Z,1.53
2023-01-22T02:25:47.633Z,1.50
2023-01-22T02:29:29.076Z,1.52
2023-01-22T02:32:58.250Z,1.56
2023-01-22T02:36:53.212Z,1.59
2023-01-22T02:40:46.930Z,1.58
2023-01-22T02:44:50.574Z,1.59
2023-01-22T02:48:55.377Z,1.54
2023-01-22T02:52:49.898Z,1.49
2023-01-22T02:56:49.556Z,1.51
2023-01-22T03:00:46.079Z,1.53
2023-01-22T03:04:35.339Z,1.51
2023-01-22T03:08:31.668Z,1.50
2023-01-22T03:12:05.716Z,1.46
2023-01-22T03:16:00.448Z,1.52
2023-01-22T03:19:55.501Z,1.58
2023-01-22T03:23:44.484Z,1.57
2023-01-22T03:27:38.821Z,1.57
2023-01-22T03:31:32.706Z,1.57
2023-01-22T03:35:26.374Z,1.62
2023-01-22T03:39:30.589Z,1.64
2023-01-22T03:43:34.194Z,1.62
2023-01-22T03:47:29.194Z,1.65
2023-01-22T03:51:33.628Z,1.66
2023-01-22T03:55:29.823Z,1.62
2023-01-22T03:59:10.277Z,1.62
2023-01-22T04:03:03.761Z,1.59
2023-01-22T04:07:07.689Z,1.57
2023-01-22T04:11:10.234Z,1.53
2023-01-22T04:15:13.849Z,1.58
2023-01-22T04:19:16.502Z,1.61
2023-01-22T04:23:19.182Z,1.63
2023-01-22T04:27:21.583Z,1.64
2023-01-22T04:31:17.907Z,1.59
2023-01-22T04:34:48.010Z,1.56
2023-01-22T04:38:17.507Z,1.62
2023-01-22T04:41:49.031Z,1.64
2023-01-22T04:45:35.016Z,1.66
2023-01-22T04:49:36.099Z,1.66
2023-01-22T04:53:39.863Z,1.71
2023-01-22T04:57:55.553Z,1.68
2023-01-22T05:01:51.603Z,1.66
2023-01-22T05:05:19.261Z,1.70
2023-01-22T05:09:07.328Z,1.72
2023-01-22T05:12:53.393Z,1.74
2023-01-22T05:16:42.424Z,1.75
2023-01-22T05:20:27.115Z,1.78
2023-01-22T05:24:22.319Z,1.78
2023-01-22T05:28:23.427Z,1.76
2023-01-22T05:32:19.909Z,1.72
2023-01-22T05:36:23.630Z,1.68
2023-01-22T05:40:26.371Z,1.67
2023-01-22T05:44:37.774Z,1.69
2023-01-22T05:47:58.849Z,1.67
2023-01-22T05:51:55.437Z,1.70
2023-01-22T05:55:59.174Z,1.70
2023-01-22T05:59:55.956Z,1.72
2023-01-22T06:03:59.799Z,1.70
2023-01-22T06:07:55.901Z,1.72
2023-01-22T06:11:41.614Z,1.72
2023-01-22T06:15:28.059Z,1.70
2023-01-22T06:19:08.219Z,1.64
2023-01-22T06:22:56.790Z,1.67
2023-01-22T06:27:15.706Z,1.74
2023-01-22T06:31:02.554Z,1.73
2023-01-22T06:34:58.906Z,1.70
2023-01-22T06:38:37.781Z,1.69
2023-01-22T06:42:40.118Z,1.66
2023-01-22T06:46:43.827Z,1.64
2023-01-22T06:50:14.001Z,1.65
2023-01-22T06:54:05.997Z,1.67
2023-01-22T06:57:39.372Z,1.76
2023-01-22T07:01:35.959Z,1.77
2023-01-22T07:05:39.809Z,1.77
2023-01-22T07:09:31.371Z,1.79
2023-01-22T07:13:10.432Z,1.79
2023-01-22T07:17:13.900Z,1.82
2023-01-22T07:20:54.148Z,1.76
2023-01-22T07:25:09.855Z,1.73
2023-01-22T07:29:13.440Z,1.77
2023-01-22T07:33:17.514Z,1.80
2023-01-22T07:37:03.373Z,1.81
2023-01-22T07:41:00.141Z,1.81
2023-01-22T07:44:36.559Z,1.81
2023-01-22T07:48:39.945Z,1.84
2023-01-22T07:52:18.555Z,1.83
2023-01-22T07:56:15.119Z,1.86
2023-01-22T08:00:17.963Z,1.93
2023-01-22T08:04:00.920Z,1.92
2023-01-22T08:08:04.488Z,1.94
2023-01-22T08:16:56.831Z,1.97
2023-01-22T08:21:00.439Z,1.96
2023-01-22T08:24:29.541Z,2.00
2023-01-22T08:28:25.727Z,2.05
2023-01-22T08:32:23.147Z,2.03
2023-01-22T08:35:58.722Z,2.04
2023-01-22T08:39:46.908Z,2.06
2023-01-22T08:43:09.808Z,2.09
2023-01-22T08:47:40.375Z,2.09
2023-01-22T08:51:45.742Z,2.07
2023-01-22T08:55:34.882Z,2.12
2023-01-22T08:59:35.573Z,2.19
2023-01-22T09:03:44.024Z,2.22
2023-01-22T09:07:25.868Z,2.21
2023-01-22T09:11:23.522Z,2.28
2023-01-22T09:15:16.165Z,2.30
2023-01-22T09:19:04.087Z,2.24
2023-01-22T09:23:06.940Z,2.21
2023-01-22T09:26:56.166Z,2.24
2023-01-22T09:30:45.469Z,2.25
2023-01-22T09:34:21.944Z,2.26
2023-01-22T09:38:27.400Z,2.29
2023-01-22T09:42:25.357Z,2.33
2023-01-22T09:46:17.886Z,2.28
2023-01-22T09:50:11.089Z,2.29
2023-01-22T09:54:07.846Z,2.28
2023-01-22T09:58:04.315Z,2.32
2023-01-22T10:01:49.427Z,2.31
2023-01-22T10:05:48.303Z,2.33
2023-01-22T10:09:46.982Z,2.34
2023-01-22T10:13:54.320Z,2.34
2023-01-22T10:18:03.072Z,2.36
2023-01-22T10:22:12.438Z,2.34
2023-01-22T10:26:15.951Z,2.35
2023-01-22T10:30:30.873Z,2.42
2023-01-22T10:34:30.413Z,2.49
2023-01-22T10:38:52.324Z,2.49
2023-01-22T10:42:58.797Z,2.47
2023-01-22T10:47:05.589Z,2.52
2023-01-22T10:51:15.294Z,2.51
2023-01-22T10:55:08.735Z,2.49
2023-01-22T10:59:06.964Z,2.52
2023-01-22T11:02:56.822Z,2.58
2023-01-22T11:07:00.632Z,2.62
2023-01-22T11:11:13.535Z,2.56
2023-01-22T11:15:23.281Z,2.53
2023-01-22T11:19:37.604Z,2.51
2023-01-22T11:23:51.948Z,2.51
2023-01-22T11:28:06.462Z,2.53
2023-01-22T11:32:12.138Z,2.52
2023-01-22T11:36:28.350Z,2.56
2023-01-22T11:40:31.832Z,2.58
2023-01-22T11:44:32.017Z,2.61
2023-01-22T11:48:35.698Z,2.55
2023-01-22T11:52:30.431Z,2.57
2023-01-22T11:56:34.041Z,2.58
2023-01-22T12:00:22.067Z,2.61
2023-01-22T12:04:44.099Z,2.58
2023-01-22T12:09:12.600Z,2.51
2023-01-22T12:13:11.963Z,2.47
2023-01-22T12:16:39.539Z,2.44
2023-01-22T12:21:04.570Z,2.42
2023-01-22T12:25:00.292Z,2.42
2023-01-22T12:29:02.663Z,2.48
2023-01-22T12:33:05.482Z,2.51
2023-01-22T12:41:34.340Z,2.50
2023-01-22T12:45:56.262Z,2.55
2023-01-22T12:50:04.740Z,2.55
2023-01-22T12:54:06.953Z,2.53
2023-01-22T12:58:09.797Z,2.53
2023-01-22T13:02:06.358Z,2.51
2023-01-22T13:05:59.987Z,2.50
2023-01-22T13:09:52.092Z,2.48
2023-01-22T13:14:14.778Z,2.46
2023-01-22T13:18:08.289Z,2.44
2023-01-22T13:22:12.027Z,2.35
2023-01-22T13:26:13.861Z,2.25
2023-01-22T13:30:14.358Z,2.26
2023-01-22T13:33:59.744Z,2.28
2023-01-22T13:37:56.585Z,2.29
2023-01-22T13:42:07.583Z,2.28
2023-01-22T13:46:11.327Z,2.25
2023-01-22T13:50:18.078Z,2.25
2023-01-22T13:54:16.557Z,2.25
2023-01-22T13:58:25.601Z,2.24
2023-01-22T14:03:27.102Z,2.21
2023-01-22T14:06:26.099Z,2.21
2023-01-22T14:10:24.238Z,2.21
2023-01-22T14:14:23.412Z,2.18
2023-01-22T14:18:27.013Z,2.19
2023-01-22T14:22:11.685Z,2.18
2023-01-22T14:26:26.062Z,2.13
2023-01-22T14:30:29.732Z,2.07
2023-01-22T14:34:33.353Z,2.05
2023-01-22T14:43:06.363Z,2.12
2023-01-22T14:46:23.328Z,2.12
2023-01-22T14:50:02.477Z,2.12
2023-01-22T14:54:07.374Z,2.16
2023-01-22T14:58:15.677Z,2.15
2023-01-22T15:02:20.839Z,2.10
2023-01-22T15:06:35.693Z,2.05
2023-01-22T15:10:23.422Z,2.08
2023-01-22T15:14:15.545Z,2.11
2023-01-22T15:17:57.202Z,2.07
2023-01-22T15:21:47.021Z,2.00
2023-01-22T15:25:26.054Z,2.06
2023-01-22T15:29:24.539Z,2.08
2023-01-22T15:33:28.135Z,2.05
2023-01-22T15:37:33.061Z,2.04
2023-01-22T15:41:21.330Z,2.04
2023-01-22T15:45:21.679Z,2.03
2023-01-22T15:49:24.540Z,2.01
2023-01-22T15:53:36.032Z,2.05
2023-01-22T15:57:41.741Z,2.03
2023-01-22T16:01:23.262Z,1.98
2023-01-22T16:05:31.347Z,1.97
2023-01-22T16:09:34.111Z,1.99
2023-01-22T16:13:33.352Z,2.01
2023-01-22T16:17:49.827Z,2.00
2023-01-22T16:21:45.612Z,1.97
2023-01-22T16:25:42.254Z,1.98
2023-01-22T16:29:31.834Z,1.91
2023-01-22T16:32:44.529Z,1.97
2023-01-22T16:36:38.631Z,1.99
2023-01-22T16:40:50.510Z,1.98
2023-01-22T16:44:51.042Z,1.98
2023-01-22T16:48:54.814Z,1.99
2023-01-22T16:52:40.279Z,2.00
2023-01-22T16:56:51.276Z,2.02
2023-01-22T17:00:50.678Z,2.04
2023-01-22T17:05:09.461Z,2.07
2023-01-22T17:08:57.484Z,2.08
2023-01-22T17:12:50.461Z,2.09
2023-01-22T17:16:42.327Z,2.05
2023-01-22T17:20:27.220Z,2.02
2023-01-22T17:24:28.325Z,2.01
2023-01-22T17:28:30.646Z,2.00
2023-01-22T17:31:58.193Z,1.98
2023-01-22T17:35:23.736Z,1.96
2023-01-22T17:39:34.383Z,1.99
2023-01-22T17:43:13.645Z,2.01
2023-01-22T17:47:05.922Z,2.04
2023-01-22T17:51:00.943Z,2.01
2023-01-22T17:55:04.841Z,2.05
2023-01-22T17:59:10.620Z,2.04
2023-01-22T18:02:54.158Z,1.99
2023-01-22T18:06:57.460Z,2.00
2023-01-22T18:11:01.240Z,1.97
2023-01-22T18:15:19.304Z,2.00
2023-01-22T18:19:09.288Z,2.02
2023-01-22T18:32:28.525Z,1.96
2023-01-22T18:36:17.255Z,1.95
2023-01-22T18:40:50.631Z,1.99
2023-01-22T18:44:32.689Z,2.03
2023-01-22T18:48:18.079Z,2.02
2023-01-22T18:52:12.409Z,2.06
2023-01-22T18:56:16.157Z,2.09
2023-01-22T19:04:47.747Z,2.06
2023-01-22T19:08:22.287Z,2.07
2023-01-22T19:12:18.743Z,2.07
2023-01-22T19:15:58.235Z,2.08
2023-01-22T19:19:34.616Z,2.05
2023-01-22T19:23:13.840Z,2.04
2023-01-22T19:26:50.336Z,2.06
2023-01-22T19:30:29.736Z,2.07
2023-01-22T19:34:33.348Z,2.03
2023-01-22T19:38:06.495Z,1.99
2023-01-22T19:41:14.702Z,2.00
2023-01-22T19:45:18.553Z,2.02
2023-01-22T19:49:22.291Z,2.01
2023-01-22T19:53:32.853Z,2.01
2023-01-22T19:57:19.178Z,2.02
2023-01-22T20:00:28.259Z,2.04
2023-01-22T20:04:30.983Z,2.05
2023-01-22T20:08:33.379Z,2.07
2023-01-22T20:12:36.434Z,2.08
2023-01-22T20:16:18.753Z,2.04
2023-01-22T20:25:23.785Z,2.00
2023-01-22T20:29:27.780Z,1.99
2023-01-22T20:43:26.966Z,1.98
2023-01-22T20:47:03.390Z,2.01
2023-01-22T20:55:20.009Z,1.99
2023-01-22T20:59:14.101Z,2.02
2023-01-22T21:03:18.439Z,2.04
2023-01-22T21:07:04.851Z,2.03
2023-01-22T21:10:54.124Z,2.01
2023-01-22T21:15:03.715Z,2.06
2023-01-22T21:19:06.159Z,2.09
2023-01-22T21:22:30.460Z,2.06
2023-01-22T21:26:43.840Z,2.09
2023-01-22T21:30:30.899Z,2.14
2023-01-22T21:33:53.520Z,2.19
2023-01-22T21:37:37.349Z,2.15
2023-01-22T21:41:46.128Z,2.15
2023-01-22T21:45:36.781Z,2.13
2023-01-22T21:49:23.733Z,2.11
2023-01-22T21:52:50.709Z,2.10
2023-01-22T21:56:54.355Z,2.13
2023-01-22T22:00:18.982Z,2.16
2023-01-22T22:03:55.737Z,2.11
2023-01-22T22:07:41.336Z,2.09
2023-01-22T22:11:26.230Z,2.07
2023-01-22T22:15:39.263Z,2.08
2023-01-22T22:19:43.177Z,2.13
2023-01-22T22:23:48.319Z,2.12
2023-01-22T22:27:44.761Z,2.13
2023-01-22T22:36:47.948Z,2.13
2023-01-22T22:40:31.219Z,2.08
2023-01-22T22:43:50.694Z,2.09
2023-01-22T22:55:08.075Z,2.07
2023-01-22T22:58:54.408Z,2.08
2023-01-22T23:02:47.050Z,2.10
2023-01-22T23:16:38.473Z,2.16
2023-01-22T23:20:13.689Z,2.15
2023-01-22T23:23:41.774Z,2.12
2023-01-22T23:27:45.232Z,2.09
2023-01-22T23:31:39.120Z,2.13
2023-01-22T23:34:57.839Z,2.15
2023-01-22T23:43:50.955Z,2.18
2023-01-22T23:47:37.248Z,2.18
2023-01-22T23:51:49.011Z,2.15
2023-01-22T23:54:58.903Z,2.10
2023-01-22T23:58:54.321Z,2.02
